createdAt,value
2018-06-18T00:00:00.917Z,0
2018-06-18T00:00:41.314Z,0
2018-06-18T00:01:21.671Z,0
2018-06-18T00:02:02.114Z,0
2018-06-18T00:02:42.471Z,0
2018-06-18T00:03:22.866Z,0
2018-06-18T00:04:03.323Z,0
2018-06-18T00:04:43.660Z,0
2018-06-18T00:05:24.076Z,0
2018-06-18T00:06:04.488Z,0
2018-06-18T00:06:44.910Z,0
2018-06-18T00:07:25.329Z,0
2018-06-18T00:08:05.733Z,0
2018-06-18T00:08:46.156Z,0
2018-06-18T00:09:26.539Z,0
2018-06-18T00:10:06.948Z,0
2018-06-18T00:10:47.365Z,0
2018-06-18T00:11:27.742Z,0
2018-06-18T00:12:08.169Z,0
2018-06-18T00:12:48.515Z,0
2018-06-18T00:13:28.936Z,0
2018-06-18T00:14:09.363Z,0
2018-06-18T00:14:49.768Z,0
2018-06-18T00:15:30.158Z,0
2018-06-18T00:16:10.564Z,0
2018-06-18T00:16:50.976Z,0
2018-06-18T00:17:31.426Z,0
2018-06-18T00:18:11.864Z,0
2018-06-18T00:18:52.236Z,0
2018-06-18T00:19:32.663Z,0
2018-06-18T00:20:13.030Z,0
2018-06-18T00:20:53.445Z,0
2018-06-18T00:21:33.835Z,0
2018-06-18T00:22:14.265Z,0
2018-06-18T00:22:54.632Z,0
2018-06-18T00:23:34.991Z,0
2018-06-18T00:24:15.450Z,0
2018-06-18T00:24:55.871Z,0
2018-06-18T00:25:36.293Z,0
2018-06-18T00:26:16.661Z,0
2018-06-18T00:26:57.072Z,0
2018-06-18T00:27:37.454Z,0
2018-06-18T00:28:17.834Z,0
2018-06-18T00:28:58.318Z,0
2018-06-18T00:29:38.705Z,0
2018-06-18T00:30:19.093Z,0
2018-06-18T00:30:59.498Z,0
2018-06-18T00:31:39.896Z,0
2018-06-18T00:32:20.298Z,0
2018-06-18T00:33:00.741Z,0
2018-06-18T00:33:41.145Z,0
2018-06-18T00:34:21.545Z,0
2018-06-18T00:35:01.966Z,0
2018-06-18T00:35:42.358Z,0
2018-06-18T00:36:22.735Z,0
2018-06-18T00:37:03.166Z,0
2018-06-18T00:37:43.548Z,0
2018-06-18T00:38:23.950Z,0
2018-06-18T00:39:04.369Z,0
2018-06-18T00:39:44.772Z,0
2018-06-18T00:40:25.181Z,0
2018-06-18T00:41:05.542Z,0
2018-06-18T00:41:45.966Z,0
2018-06-18T00:42:26.412Z,0
2018-06-18T00:43:06.801Z,0
2018-06-18T00:43:47.205Z,0
2018-06-18T00:44:27.586Z,0
2018-06-18T00:45:07.986Z,0
2018-06-18T00:45:48.388Z,0
2018-06-18T00:46:28.816Z,0
2018-06-18T00:47:09.227Z,0
2018-06-18T00:47:49.636Z,0
2018-06-18T00:48:30.045Z,0
2018-06-18T00:49:10.438Z,0
2018-06-18T00:49:50.898Z,0
2018-06-18T00:50:31.282Z,0
2018-06-18T00:51:11.672Z,0
2018-06-18T00:51:52.085Z,0
2018-06-18T00:52:32.445Z,0
2018-06-18T00:53:12.847Z,0
2018-06-18T00:53:53.218Z,0
2018-06-18T01:20:15.067Z,0
2018-06-18T01:20:55.479Z,0
2018-06-18T01:21:35.849Z,0
2018-06-18T01:22:16.279Z,0
2018-06-18T01:22:56.657Z,0
2018-06-18T01:23:37.077Z,0
2018-06-18T01:24:17.502Z,0
2018-06-18T01:24:57.885Z,0
2018-06-18T01:25:38.252Z,0
2018-06-18T01:26:18.695Z,0
2018-06-18T01:26:59.079Z,0
2018-06-18T01:27:39.447Z,0
2018-06-18T01:28:19.799Z,0
2018-06-18T01:29:00.206Z,0
2018-06-18T01:29:40.592Z,0
2018-06-18T01:30:21.027Z,0
2018-06-18T01:31:01.395Z,0
2018-06-18T01:31:41.792Z,0
2018-06-18T01:32:22.196Z,0
2018-06-18T01:33:02.591Z,0
2018-06-18T01:33:43.063Z,0
2018-06-18T01:34:23.449Z,0
2018-06-18T01:35:03.819Z,0
2018-06-18T01:35:44.231Z,0
2018-06-18T01:36:24.691Z,0
2018-06-18T01:37:05.093Z,0
2018-06-18T01:37:45.472Z,0
2018-06-18T01:38:25.876Z,0
2018-06-18T01:39:06.259Z,0
2018-06-18T01:39:46.625Z,0
2018-06-18T01:40:27.020Z,0
2018-06-18T01:41:07.407Z,0
2018-06-18T01:41:47.856Z,0
2018-06-18T01:42:28.267Z,0
2018-06-18T01:43:08.644Z,0
2018-06-18T01:43:49.054Z,0
2018-06-18T01:44:29.450Z,0
2018-06-18T01:45:09.922Z,0
2018-06-18T01:45:50.239Z,0
2018-06-18T01:46:30.675Z,0
2018-06-18T01:47:11.068Z,0
2018-06-18T01:47:51.451Z,0
2018-06-18T01:48:31.827Z,0
2018-06-18T01:49:12.244Z,0
2018-06-18T01:49:52.619Z,0
2018-06-18T01:50:33.046Z,0
2018-06-18T01:51:13.451Z,0
2018-06-18T01:51:53.854Z,0
2018-06-18T01:52:34.272Z,0
2018-06-18T01:53:14.694Z,0
2018-06-18T01:53:55.089Z,0
2018-06-18T01:54:35.500Z,0
2018-06-18T01:55:15.941Z,0
2018-06-18T01:55:56.322Z,0
2018-06-18T01:56:36.684Z,0
2018-06-18T01:57:17.119Z,0
2018-06-18T01:57:57.548Z,0
2018-06-18T01:58:37.934Z,0
2018-06-18T01:59:18.299Z,0
2018-06-18T01:59:58.713Z,0
2018-06-18T02:00:39.165Z,0
2018-06-18T02:01:19.520Z,0
2018-06-18T02:01:59.942Z,0
2018-06-18T02:02:40.323Z,0
2018-06-18T02:03:20.736Z,0
2018-06-18T02:04:01.157Z,0
2018-06-18T02:48:16.783Z,0
2018-06-18T02:48:57.141Z,0
2018-06-18T02:49:37.540Z,4
2018-06-18T02:50:17.971Z,4
2018-06-18T02:50:58.363Z,4
2018-06-18T02:51:38.794Z,0
2018-06-18T02:52:19.162Z,0
2018-06-18T02:52:59.616Z,0
2018-06-18T02:53:39.986Z,0
2018-06-18T03:28:46.725Z,60
2018-06-18T03:29:27.180Z,64
2018-06-18T03:30:07.576Z,68
2018-06-18T03:44:41.822Z,76
2018-06-18T03:45:22.211Z,72
2018-06-18T03:46:02.618Z,80
2018-06-18T03:46:43.038Z,84
2018-06-18T03:47:23.466Z,88
2018-06-18T03:48:03.800Z,96
2018-06-18T03:48:44.226Z,104
2018-06-18T03:49:24.677Z,112
2018-06-18T03:50:05.122Z,124
2018-06-18T03:50:45.491Z,132
2018-06-18T03:51:25.852Z,132
2018-06-18T03:52:06.305Z,128
2018-06-18T04:43:36.049Z,348
2018-06-18T04:44:16.438Z,340
2018-06-18T04:44:56.860Z,332
2018-06-18T04:45:37.278Z,328
2018-06-18T04:46:17.673Z,308
2018-06-18T04:46:58.026Z,296
2018-06-18T04:47:38.440Z,288
2018-06-18T04:48:18.863Z,280
2018-06-18T04:48:59.253Z,272
2018-06-18T04:49:39.680Z,268
2018-06-18T04:50:20.097Z,260
2018-06-18T04:51:00.477Z,260
2018-06-18T04:51:40.886Z,272
2018-06-18T04:52:21.249Z,292
2018-06-18T04:53:01.629Z,312
2018-06-18T04:53:42.030Z,332
2018-06-18T04:54:22.469Z,348
2018-06-18T04:55:02.863Z,352
2018-06-18T04:55:43.284Z,352
2018-06-18T04:56:23.725Z,352
2018-06-18T04:57:04.064Z,356
2018-06-18T04:57:44.438Z,368
2018-06-18T04:58:24.818Z,380
2018-06-18T04:59:05.272Z,388
2018-06-18T04:59:45.650Z,396
2018-06-18T05:00:26.056Z,396
2018-06-18T05:01:06.539Z,392
2018-06-18T05:01:46.935Z,400
2018-06-18T05:02:27.382Z,404
2018-06-18T05:03:07.763Z,408
2018-06-18T05:03:48.134Z,424
2018-06-18T05:04:28.522Z,448
2018-06-18T05:05:09.007Z,476
2018-06-18T05:05:49.365Z,496
2018-06-18T05:06:29.789Z,500
2018-06-18T05:07:10.215Z,496
2018-06-18T05:07:50.601Z,488
2018-06-18T05:08:31.016Z,492
2018-06-18T05:09:11.364Z,492
2018-06-18T05:09:51.800Z,488
2018-06-18T05:10:32.149Z,496
2018-06-18T05:11:12.566Z,484
2018-06-18T05:11:52.950Z,460
2018-06-18T05:12:33.396Z,428
2018-06-18T05:13:13.795Z,408
2018-06-18T05:13:54.271Z,380
2018-06-18T05:14:34.685Z,360
2018-06-18T05:15:15.086Z,340
2018-06-18T05:15:55.483Z,320
2018-06-18T05:16:35.852Z,312
2018-06-18T05:17:16.287Z,304
2018-06-18T05:17:56.681Z,300
2018-06-18T05:18:37.092Z,296
2018-06-18T05:19:17.483Z,296
2018-06-18T05:19:57.906Z,292
2018-06-18T05:20:38.467Z,296
2018-06-18T05:21:18.786Z,304
2018-06-18T05:21:59.203Z,316
2018-06-18T05:22:39.625Z,328
2018-06-18T05:23:19.997Z,340
2018-06-18T05:24:00.423Z,348
2018-06-18T05:24:40.838Z,360
2018-06-18T05:25:21.337Z,372
2018-06-18T05:26:02.527Z,384
2018-06-18T05:26:42.944Z,392
2018-06-18T05:27:23.319Z,388
2018-06-18T05:28:03.723Z,392
2018-06-18T05:28:44.136Z,392
2018-06-18T05:29:24.526Z,396
2018-06-18T05:30:04.963Z,400
2018-06-18T05:30:45.340Z,408
2018-06-18T05:31:25.823Z,420
2018-06-18T05:32:06.224Z,420
2018-06-18T05:32:46.619Z,428
2018-06-18T05:41:11.855Z,548
2018-06-18T05:41:52.258Z,540
2018-06-18T05:42:32.686Z,528
2018-06-18T05:43:13.026Z,512
2018-06-18T05:43:53.430Z,508
2018-06-18T05:44:33.881Z,504
2018-06-18T05:45:14.508Z,504
2018-06-18T05:45:55.449Z,508
2018-06-18T05:46:35.617Z,536
2018-06-18T05:47:16.081Z,572
2018-06-18T05:47:56.450Z,612
2018-06-18T05:48:36.913Z,644
2018-06-18T05:49:17.337Z,688
2018-06-18T05:49:57.757Z,744
2018-06-18T05:50:38.238Z,844
2018-06-18T05:51:18.641Z,1028
2018-06-18T05:51:59.108Z,1332
2018-06-18T05:52:39.488Z,1608
2018-06-18T05:53:19.916Z,1840
2018-06-18T05:54:00.373Z,1952
2018-06-18T05:54:40.768Z,2072
2018-06-18T05:55:21.228Z,2264
2018-06-18T05:56:01.586Z,2596
2018-06-18T05:56:42.052Z,3012
2018-06-18T05:57:22.439Z,4432
2018-06-18T05:58:02.878Z,4616
2018-06-18T05:58:43.267Z,5272
2018-06-18T05:59:23.715Z,4640
2018-06-18T06:00:04.217Z,5828
2018-06-18T06:00:44.691Z,4708
2018-06-18T06:01:25.148Z,4356
2018-06-18T06:02:05.529Z,4440
2018-06-18T06:02:45.969Z,4272
2018-06-18T06:03:26.378Z,4548
2018-06-18T06:04:06.772Z,5396
2018-06-18T06:04:47.227Z,6324
2018-06-18T06:05:27.609Z,5532
2018-06-18T06:06:08.028Z,6020
2018-06-18T06:06:48.407Z,7168
2018-06-18T06:07:28.805Z,9040
2018-06-18T06:08:09.248Z,8480
2018-06-18T06:08:49.650Z,12996
2018-06-18T06:09:30.015Z,9084
2018-06-18T06:10:10.456Z,7788
2018-06-18T06:10:50.876Z,7348
2018-06-18T06:11:31.298Z,7044
2018-06-18T06:12:11.673Z,14536
2018-06-18T06:12:52.130Z,8328
2018-06-18T06:13:32.485Z,8960
2018-06-18T06:14:12.884Z,7596
2018-06-18T06:16:46.458Z,5508
2018-06-18T06:17:26.845Z,4156
2018-06-18T06:18:07.524Z,3596
2018-06-18T06:18:47.951Z,3288
2018-06-18T06:19:28.371Z,3056
2018-06-18T06:20:08.745Z,2908
2018-06-18T06:20:50.595Z,2980
2018-06-18T06:21:31.770Z,3284
2018-06-18T06:22:11.844Z,3560
2018-06-18T06:22:52.822Z,3872
2018-06-18T06:23:33.937Z,4172
2018-06-18T06:24:14.912Z,5100
2018-06-18T06:24:55.738Z,9620
2018-06-18T06:25:36.628Z,10188
2018-06-18T06:26:17.704Z,10972
2018-06-18T06:26:58.521Z,7344
2018-06-18T06:27:39.964Z,4844
2018-06-18T06:28:21.823Z,3944
2018-06-18T06:29:02.826Z,3556
2018-06-18T06:29:43.067Z,3452
2018-06-18T06:30:23.530Z,3580
2018-06-18T06:31:04.179Z,3704
2018-06-18T06:31:45.241Z,3440
2018-06-18T06:32:25.728Z,3040
2018-06-18T06:33:06.139Z,2560
2018-06-18T06:33:46.603Z,2140
2018-06-18T06:34:27.019Z,1868
2018-06-18T06:35:07.431Z,1636
2018-06-18T06:35:47.880Z,1496
2018-06-18T06:36:28.283Z,1420
2018-06-18T06:37:08.754Z,1376
2018-06-18T06:37:49.131Z,1324
2018-06-18T06:38:29.569Z,1300
2018-06-18T06:39:10.030Z,1396
2018-06-18T06:39:50.493Z,1448
2018-06-18T06:40:30.878Z,1536
2018-06-18T06:41:11.346Z,1548
2018-06-18T06:41:51.824Z,1592
2018-06-18T06:42:32.605Z,1684
2018-06-18T06:43:13.777Z,1628
2018-06-18T06:43:53.619Z,1640
2018-06-18T06:44:34.619Z,1780
2018-06-18T06:45:15.811Z,2128
2018-06-18T06:45:56.650Z,2444
2018-06-18T06:46:37.237Z,2664
2018-06-18T06:47:18.077Z,2388
2018-06-18T06:47:58.823Z,1852
2018-06-18T06:48:39.230Z,1760
2018-06-18T06:50:53.239Z,1292
2018-06-18T06:53:23.051Z,1012
2018-06-18T06:54:03.691Z,976
2018-06-18T06:54:45.820Z,928
2018-06-18T06:55:27.504Z,884
2018-06-18T06:56:10.022Z,868
2018-06-18T06:56:52.703Z,856
2018-06-18T06:57:35.004Z,860
2018-06-18T06:58:15.935Z,868
2018-06-18T06:58:57.153Z,868
2018-06-18T06:59:38.959Z,844
2018-06-18T07:02:12.551Z,784
2018-06-18T07:02:54.020Z,788
2018-06-18T07:03:34.763Z,816
2018-06-18T07:04:16.412Z,836
2018-06-18T07:04:58.919Z,848
2018-06-18T07:05:40.593Z,856
2018-06-18T07:06:22.575Z,864
2018-06-18T07:07:03.284Z,892
2018-06-18T07:07:44.770Z,896
2018-06-18T07:08:25.732Z,876
2018-06-18T07:09:07.601Z,868
2018-06-18T07:10:03.695Z,824
2018-06-18T07:10:44.408Z,812
2018-06-18T07:11:24.728Z,812
2018-06-18T07:12:05.798Z,792
2018-06-18T07:12:46.144Z,760
2018-06-18T07:13:33.852Z,788
2018-06-18T07:14:14.069Z,788
2018-06-18T07:14:54.472Z,800
2018-06-18T07:15:35.667Z,848
2018-06-18T07:16:15.977Z,880
2018-06-18T07:16:58.915Z,908
2018-06-18T07:17:39.373Z,948
2018-06-18T07:18:20.164Z,980
2018-06-18T07:19:01.185Z,1004
2018-06-18T07:19:41.728Z,1044
2018-06-18T07:20:22.488Z,1080
2018-06-18T07:21:03.007Z,1056
2018-06-18T07:21:43.595Z,1036
2018-06-18T07:22:24.148Z,1016
2018-06-18T07:23:04.704Z,980
2018-06-18T07:23:45.660Z,964
2018-06-18T07:24:26.397Z,936
2018-06-18T07:25:08.168Z,916
2018-06-18T07:25:49.180Z,904
2018-06-18T07:26:29.880Z,880
2018-06-18T07:27:12.272Z,868
2018-06-18T07:27:53.172Z,884
2018-06-18T07:28:33.577Z,880
2018-06-18T07:29:16.075Z,868
2018-06-18T07:29:56.746Z,868
2018-06-18T07:30:38.118Z,880
2018-06-18T07:31:18.588Z,884
2018-06-18T07:31:59.019Z,884
2018-06-18T07:32:39.535Z,896
2018-06-18T07:33:20.090Z,908
2018-06-18T07:34:00.542Z,940
2018-06-18T07:34:40.982Z,972
2018-06-18T07:35:22.324Z,1008
2018-06-18T07:36:02.231Z,1044
2018-06-18T07:36:42.832Z,1088
2018-06-18T07:37:23.562Z,1132
2018-06-18T07:38:04.102Z,1188
2018-06-18T07:38:44.993Z,1256
2018-06-18T07:39:27.776Z,1312
2018-06-18T07:40:09.412Z,1344
2018-06-18T07:40:50.509Z,1396
2018-06-18T07:41:32.583Z,1456
2018-06-18T07:42:14.593Z,1532
2018-06-18T07:42:55.870Z,1592
2018-06-18T07:43:37.330Z,1620
2018-06-18T07:44:21.127Z,1632
2018-06-18T07:45:02.011Z,1644
2018-06-18T07:45:44.400Z,1680
2018-06-18T07:46:24.825Z,1704
2018-06-18T07:47:05.628Z,1744
2018-06-18T07:47:46.468Z,1660
2018-06-18T07:48:28.042Z,1564
2018-06-18T07:49:09.955Z,1524
2018-06-18T07:49:51.674Z,1492
2018-06-18T07:50:31.809Z,1488
2018-06-18T07:54:03.315Z,1732
2018-06-18T07:54:43.966Z,1740
2018-06-18T07:55:24.955Z,1860
2018-06-18T07:56:06.131Z,1960
2018-06-18T07:56:46.625Z,2000
2018-06-18T07:57:27.129Z,2040
2018-06-18T07:58:07.834Z,2072
2018-06-18T07:58:49.440Z,2060
2018-06-18T07:59:30.488Z,2040
2018-06-18T08:00:11.018Z,2064
2018-06-18T08:00:52.855Z,2096
2018-06-18T08:01:33.955Z,2088
2018-06-18T08:02:15.290Z,2072
2018-06-18T08:02:56.151Z,2036
2018-06-18T08:03:36.737Z,2084
2018-06-18T08:04:17.867Z,2140
2018-06-18T08:04:58.437Z,2196
2018-06-18T08:05:38.993Z,2296
2018-06-18T08:06:19.400Z,2356
2018-06-18T08:07:00.155Z,2408
2018-06-18T08:07:41.811Z,2464
2018-06-18T08:08:23.951Z,2480
2018-06-18T08:09:04.672Z,2532
2018-06-18T08:09:47.567Z,2540
2018-06-18T08:10:27.977Z,2580
2018-06-18T08:11:09.530Z,2600
2018-06-18T08:11:50.196Z,2776
2018-06-18T08:12:30.415Z,2824
2018-06-18T08:13:11.509Z,2772
2018-06-18T08:13:52.018Z,2664
2018-06-18T08:14:32.413Z,2584
2018-06-18T08:15:13.123Z,2668
2018-06-18T08:15:53.622Z,2616
2018-06-18T08:16:34.036Z,2576
2018-06-18T08:17:16.675Z,2604
2018-06-18T08:17:58.054Z,2592
2018-06-18T08:18:39.341Z,2636
2018-06-18T08:19:19.978Z,2756
2018-06-18T08:20:03.671Z,2924
2018-06-18T08:20:46.836Z,3144
2018-06-18T08:21:27.479Z,3348
2018-06-18T08:22:08.319Z,3600
2018-06-18T08:22:51.188Z,3564
2018-06-18T08:23:31.859Z,3448
2018-06-18T08:24:12.872Z,3492
2018-06-18T08:24:53.738Z,3552
2018-06-18T08:26:17.327Z,3940
2018-06-18T08:26:58.063Z,4084
2018-06-18T08:27:39.855Z,4084
2018-06-18T08:28:20.201Z,4248
2018-06-18T08:29:01.420Z,4448
2018-06-18T08:29:43.526Z,4888
2018-06-18T08:30:26.188Z,4824
2018-06-18T08:31:06.128Z,5016
2018-06-18T08:31:47.315Z,5096
2018-06-18T08:32:28.439Z,5128
2018-06-18T08:33:09.239Z,5232
2018-06-18T08:33:49.895Z,5324
2018-06-18T08:34:32.191Z,5032
2018-06-18T08:35:14.626Z,4732
2018-06-18T08:35:55.270Z,4424
2018-06-18T08:36:36.139Z,4020
2018-06-18T08:37:16.905Z,3936
2018-06-18T08:37:57.568Z,3764
2018-06-18T08:38:38.106Z,3876
2018-06-18T08:39:18.807Z,4268
2018-06-18T08:40:00.332Z,4500
2018-06-18T08:40:40.453Z,4552
2018-06-18T08:41:21.030Z,4828
2018-06-18T08:42:01.403Z,5076
2018-06-18T08:42:44.976Z,5128
2018-06-18T08:43:25.368Z,5088
2018-06-18T08:44:06.974Z,4996
2018-06-18T08:44:46.775Z,4784
2018-06-18T08:45:27.457Z,4920
2018-06-18T08:46:08.764Z,4700
2018-06-18T08:46:50.531Z,4576
2018-06-18T08:47:33.467Z,4744
2018-06-18T08:48:13.096Z,5516
2018-06-18T08:48:53.662Z,5616
2018-06-18T08:49:35.129Z,5856
2018-06-18T08:50:18.118Z,5508
2018-06-18T08:50:59.873Z,5240
2018-06-18T08:51:40.255Z,5060
2018-06-18T08:52:20.523Z,4568
2018-06-18T08:53:01.635Z,3964
2018-06-18T08:53:42.327Z,3628
2018-06-18T08:54:23.254Z,3692
2018-06-18T08:55:04.161Z,3524
2018-06-18T08:55:45.079Z,3572
2018-06-18T08:56:25.472Z,3688
2018-06-18T08:57:06.436Z,3572
2018-06-18T08:57:47.302Z,3292
2018-06-18T08:58:28.856Z,3596
2018-06-18T08:59:10.141Z,3772
2018-06-18T08:59:51.618Z,3692
2018-06-18T09:01:17.077Z,3808
2018-06-18T09:05:32.381Z,3028
2018-06-18T09:06:18.114Z,2872
2018-06-18T09:06:59.598Z,2780
2018-06-18T09:07:41.898Z,2724
2018-06-18T09:08:22.709Z,2684
2018-06-18T09:09:05.072Z,2808
2018-06-18T09:09:47.110Z,2924
2018-06-18T09:10:27.362Z,2988
2018-06-18T09:11:08.654Z,3044
2018-06-18T09:11:50.083Z,3104
2018-06-18T09:12:30.599Z,2936
2018-06-18T09:13:10.936Z,2656
2018-06-18T09:13:52.397Z,2524
2018-06-18T09:14:33.476Z,2908
2018-06-18T09:15:14.551Z,3088
2018-06-18T09:15:54.928Z,3028
2018-06-18T09:16:36.114Z,3152
2018-06-18T09:17:17.351Z,3608
2018-06-18T09:17:57.890Z,3708
2018-06-18T09:18:38.920Z,3532
2018-06-18T09:21:30.835Z,3680
2018-06-18T09:22:12.249Z,3732
2018-06-18T09:22:53.114Z,3692
2018-06-18T09:23:34.110Z,3564
2018-06-18T09:24:15.346Z,3344
2018-06-18T09:24:57.017Z,3124
2018-06-18T09:25:38.199Z,2972
2018-06-18T09:26:19.269Z,2836
2018-06-18T09:27:00.107Z,2696
2018-06-18T09:27:41.664Z,2560
2018-06-18T09:28:22.397Z,2508
2018-06-18T09:29:03.972Z,2496
2018-06-18T09:29:43.877Z,2376
2018-06-18T09:30:25.891Z,2268
2018-06-18T09:31:07.363Z,2232
2018-06-18T09:31:47.697Z,2172
2018-06-18T09:32:28.428Z,2088
2018-06-18T09:33:09.016Z,2040
2018-06-18T09:33:50.972Z,2056
2018-06-18T09:34:31.733Z,2056
2018-06-18T09:35:12.626Z,2016
2018-06-18T09:35:53.584Z,2020
2018-06-18T09:36:34.233Z,2084
2018-06-18T09:37:15.084Z,1984
2018-06-18T09:37:56.050Z,1844
2018-06-18T09:38:36.915Z,1732
2018-06-18T09:39:18.029Z,1648
2018-06-18T09:40:00.158Z,1552
2018-06-18T09:40:40.427Z,1504
2018-06-18T09:41:24.980Z,1456
2018-06-18T09:42:06.679Z,1432
2018-06-18T09:42:48.045Z,1384
2018-06-18T09:43:28.453Z,1356
2018-06-18T09:44:09.155Z,1372
2018-06-18T09:44:50.386Z,1376
2018-06-18T09:45:31.934Z,1376
2018-06-18T09:46:13.384Z,1368
2018-06-18T09:46:54.474Z,1364
2018-06-18T09:47:35.438Z,1392
2018-06-18T09:48:16.288Z,1440
2018-06-18T09:48:57.062Z,1396
2018-06-18T09:49:37.505Z,1340
2018-06-18T09:50:18.107Z,1300
2018-06-18T09:50:58.596Z,1344
2018-06-18T09:51:39.487Z,1404
2018-06-18T09:52:20.954Z,1436
2018-06-18T09:53:01.015Z,1484
2018-06-18T09:53:41.551Z,1520
2018-06-18T09:54:22.143Z,1432
2018-06-18T09:55:03.217Z,1384
2018-06-18T09:55:44.364Z,1416
2018-06-18T09:56:25.426Z,1504
2018-06-18T09:57:06.407Z,1688
2018-06-18T09:57:47.159Z,1776
2018-06-18T09:58:27.573Z,1948
2018-06-18T10:00:48.429Z,3072
2018-06-18T10:01:31.780Z,3380
2018-06-18T10:02:12.957Z,3504
2018-06-18T10:02:54.357Z,3696
2018-06-18T10:03:35.610Z,3680
2018-06-18T10:04:17.173Z,3672
2018-06-18T10:04:59.184Z,3976
2018-06-18T10:45:11.018Z,1508
2018-06-18T10:45:51.572Z,1504
2018-06-18T10:46:37.135Z,1528
2018-06-18T10:47:17.750Z,1496
2018-06-18T10:47:58.364Z,1452
2018-06-18T10:48:38.968Z,1420
2018-06-18T10:49:20.607Z,1372
2018-06-18T10:50:01.702Z,1332
2018-06-18T10:51:30.731Z,1432
2018-06-18T10:52:58.306Z,1588
2018-06-18T10:53:38.802Z,1560
2018-06-18T10:54:19.484Z,1496
2018-06-18T10:55:01.116Z,1456
2018-06-18T10:55:43.284Z,1424
2018-06-18T10:56:24.952Z,1440
2018-06-18T10:57:06.593Z,1512
2018-06-18T10:57:48.212Z,1568
2018-06-18T10:58:32.363Z,1644
2018-06-18T10:59:13.550Z,1676
2018-06-18T10:59:58.423Z,1588
2018-06-18T11:00:38.466Z,1540
2018-06-18T11:01:22.938Z,1560
2018-06-18T11:02:03.175Z,1620
2018-06-18T11:02:44.833Z,1700
2018-06-18T11:03:25.319Z,1644
2018-06-18T11:04:06.708Z,1528
2018-06-18T11:04:48.080Z,1424
2018-06-18T11:05:28.599Z,1388
2018-06-18T11:06:10.146Z,1376
2018-06-18T11:06:50.732Z,1348
2018-06-18T11:07:32.081Z,1320
2018-06-18T11:08:13.113Z,1288
2018-06-18T11:08:54.033Z,1328
2018-06-18T11:09:34.770Z,1408
2018-06-18T11:10:15.029Z,1396
2018-06-18T11:10:57.627Z,1392
2018-06-18T11:11:37.398Z,1396
2018-06-18T11:13:59.335Z,1292
2018-06-18T11:14:40.609Z,1268
2018-06-18T11:15:21.141Z,1288
2018-06-18T11:16:01.569Z,1316
2018-06-18T11:16:42.424Z,1304
2018-06-18T11:17:25.157Z,1316
2018-06-18T11:18:04.633Z,1356
2018-06-18T11:18:45.188Z,1368
2018-06-18T11:19:26.017Z,1356
2018-06-18T11:20:07.340Z,1328
2018-06-18T11:20:47.900Z,1284
2018-06-18T11:23:25.361Z,1316
2018-06-18T11:25:46.767Z,1320
2018-06-18T11:26:26.606Z,1312
2018-06-18T11:27:07.394Z,1312
2018-06-18T11:27:48.024Z,1320
2018-06-18T11:28:28.551Z,1324
2018-06-18T11:29:09.185Z,1308
2018-06-18T11:29:50.155Z,1284
2018-06-18T11:30:31.456Z,1264
2018-06-18T11:31:11.803Z,1284
2018-06-18T11:31:55.408Z,1320
2018-06-18T11:32:35.466Z,1328
2018-06-18T11:33:15.885Z,1332
2018-06-18T11:33:57.231Z,1368
2018-06-18T11:34:38.004Z,1416
2018-06-18T11:35:18.930Z,1480
2018-06-18T11:35:59.833Z,1504
2018-06-18T11:36:41.265Z,1484
2018-06-18T11:37:22.001Z,1472
2018-06-18T11:38:02.427Z,1476
2018-06-18T11:38:43.334Z,1488
2018-06-18T11:39:23.731Z,1488
2018-06-18T11:40:04.152Z,1520
2018-06-18T11:40:45.029Z,1592
2018-06-18T11:41:26.916Z,1640
2018-06-18T11:42:07.487Z,1652
2018-06-18T11:42:47.866Z,1684
2018-06-18T11:43:29.652Z,1692
2018-06-18T11:44:10.601Z,1684
2018-06-18T11:44:53.138Z,1620
2018-06-18T11:45:34.420Z,1536
2018-06-18T11:46:16.073Z,1496
2018-06-18T11:46:57.033Z,1472
2018-06-18T11:47:37.923Z,1420
2018-06-18T11:48:27.201Z,1320
2018-06-18T11:49:07.785Z,1256
2018-06-18T11:49:48.289Z,1180
2018-06-18T11:50:28.957Z,1112
2018-06-18T11:51:09.686Z,1080
2018-06-18T11:51:49.896Z,1064
2018-06-18T11:52:30.586Z,1048
2018-06-18T11:53:12.066Z,1032
2018-06-18T11:53:51.717Z,1004
2018-06-18T11:54:33.253Z,1008
2018-06-18T11:55:13.791Z,1124
2018-06-18T11:55:55.327Z,1228
2018-06-18T11:56:34.865Z,1252
2018-06-18T11:57:16.707Z,1236
2018-06-18T11:57:57.148Z,1212
2018-06-18T11:58:37.714Z,1184
2018-06-18T11:59:19.405Z,1156
2018-06-18T12:00:01.229Z,1144
2018-06-18T12:02:01.326Z,1028
2018-06-18T12:02:41.584Z,1020
2018-06-18T12:03:22.536Z,1020
2018-06-18T12:04:02.999Z,1004
2018-06-18T12:04:44.360Z,992
2018-06-18T12:05:25.014Z,1032
2018-06-18T12:06:07.530Z,1128
2018-06-18T12:06:48.254Z,1196
2018-06-18T12:07:29.017Z,1236
2018-06-18T12:08:09.734Z,1240
2018-06-18T12:08:50.915Z,1276
2018-06-18T12:09:32.383Z,1256
2018-06-18T12:10:12.412Z,1208
2018-06-18T12:10:53.314Z,1172
2018-06-18T12:11:33.827Z,1180
2018-06-18T12:12:15.169Z,1236
2018-06-18T12:12:55.716Z,1248
2018-06-18T12:13:37.716Z,1224
2018-06-18T12:14:19.410Z,1248
2018-06-18T12:15:00.141Z,1296
2018-06-18T12:15:41.854Z,1328
2018-06-18T12:16:23.186Z,1316
2018-06-18T12:17:05.409Z,1264
2018-06-18T12:17:45.950Z,1252
2018-06-18T12:18:26.658Z,1252
2018-06-18T12:19:08.177Z,1260
2018-06-18T12:19:48.882Z,1188
2018-06-18T12:20:29.708Z,1168
2018-06-18T12:21:12.271Z,1180
2018-06-18T12:21:53.033Z,1188
2018-06-18T12:22:33.526Z,1164
2018-06-18T12:23:15.084Z,1156
2018-06-18T12:23:56.249Z,1216
2018-06-18T12:24:37.361Z,1316
2018-06-18T12:25:18.835Z,1380
2018-06-18T12:25:59.539Z,1408
2018-06-18T12:26:40.919Z,1420
2018-06-18T12:27:22.477Z,1488
2018-06-18T12:28:04.419Z,1544
2018-06-18T12:28:45.946Z,1536
2018-06-18T12:29:26.901Z,1504
2018-06-18T12:30:07.487Z,1532
2018-06-18T12:30:48.267Z,1536
2018-06-18T12:31:29.012Z,1576
2018-06-18T12:32:10.710Z,1668
2018-06-18T12:32:52.184Z,1744
2018-06-18T12:33:33.765Z,1924
2018-06-18T12:34:14.755Z,2096
2018-06-18T12:34:56.052Z,2208
2018-06-18T12:35:36.587Z,2252
2018-06-18T12:36:17.405Z,2196
2018-06-18T12:36:57.866Z,2176
2018-06-18T12:37:39.383Z,2272
2018-06-18T12:38:20.530Z,2408
2018-06-18T12:39:02.283Z,2528
2018-06-18T12:39:43.574Z,2604
2018-06-18T12:40:24.080Z,2620
2018-06-18T12:41:05.851Z,2644
2018-06-18T12:41:47.753Z,2672
2018-06-18T12:44:18.559Z,2792
2018-06-18T12:44:59.680Z,2796
2018-06-18T12:45:41.227Z,2828
2018-06-18T12:46:23.232Z,2856
2018-06-18T12:48:34.281Z,2836
2018-06-18T12:49:14.932Z,2712
2018-06-18T12:49:55.695Z,2592
2018-06-18T12:50:36.447Z,2476
2018-06-18T12:51:16.903Z,2404
2018-06-18T12:51:57.562Z,2288
2018-06-18T12:52:38.695Z,2128
2018-06-18T12:53:18.933Z,2136
2018-06-18T12:53:59.385Z,2320
2018-06-18T12:54:39.962Z,2396
2018-06-18T12:55:21.151Z,2436
2018-06-18T12:56:01.973Z,2440
2018-06-18T12:56:41.892Z,2392
2018-06-18T12:57:24.354Z,2320
2018-06-18T12:58:09.932Z,2320
2018-06-18T13:00:42.789Z,2172
2018-06-18T13:01:23.950Z,2080
2018-06-18T13:02:04.601Z,2056
2018-06-18T13:02:44.922Z,2016
2018-06-18T13:03:26.278Z,1824
2018-06-18T13:04:07.715Z,1632
2018-06-18T13:04:52.749Z,1532
2018-06-18T13:05:33.895Z,1432
2018-06-18T13:06:15.323Z,1368
2018-06-18T13:06:57.182Z,1420
2018-06-18T13:07:40.315Z,1416
2018-06-18T13:08:21.087Z,1392
2018-06-18T13:14:59.013Z,1488
2018-06-18T13:15:41.025Z,1500
2018-06-18T13:16:20.065Z,1368
2018-06-18T13:17:03.011Z,1368
2018-06-18T13:17:46.558Z,1388
2018-06-18T13:18:28.028Z,1384
2018-06-18T13:19:09.526Z,1348
2018-06-18T13:19:52.293Z,1304
2018-06-18T13:20:33.053Z,1220
2018-06-18T13:21:13.857Z,1172
2018-06-18T13:21:55.728Z,1088
2018-06-18T13:22:37.121Z,1056
2018-06-18T13:23:18.510Z,1064
2018-06-18T13:24:01.178Z,1052
2018-06-18T13:24:45.288Z,988
2018-06-18T13:25:28.499Z,916
2018-06-18T13:26:12.274Z,892
2018-06-18T13:26:55.506Z,924
2018-06-18T13:27:36.245Z,972
2018-06-18T13:28:20.083Z,1036
2018-06-18T13:29:06.297Z,1024
2018-06-18T13:29:47.360Z,1016
2018-06-18T13:30:30.215Z,976
2018-06-18T13:31:10.558Z,944
2018-06-18T13:31:51.125Z,944
2018-06-18T13:32:35.272Z,964